createdAt,value
2018-01-06T00:00:43.280Z,2.78
2018-01-06T00:03:09.654Z,2.90
2018-01-06T00:05:36.793Z,3.28
2018-01-06T00:08:03.247Z,3.22
2018-01-06T00:10:30.364Z,2.90
2018-01-06T00:12:56.785Z,2.80
2018-01-06T00:15:23.166Z,3.10
2018-01-06T00:17:50.318Z,2.90
2018-01-06T00:20:17.443Z,3.05
2018-01-06T00:22:43.844Z,3.00
2018-01-06T00:25:10.294Z,3.12
2018-01-06T00:27:36.725Z,2.70
2018-01-06T00:30:03.218Z,2.90
2018-01-06T00:32:29.634Z,2.70
2018-01-06T00:34:56.775Z,2.50
2018-01-06T00:37:23.158Z,2.20
2018-01-06T00:39:49.568Z,2.40
2018-01-06T00:42:15.982Z,2.28
2018-01-06T00:44:43.109Z,2.25
2018-01-06T00:47:09.522Z,2.08
2018-01-06T00:49:35.933Z,2.30
2018-01-06T00:52:02.359Z,2.15
2018-01-06T00:54:28.741Z,1.90
2018-01-06T00:56:55.138Z,2.20
2018-01-06T00:59:21.534Z,1.77
2018-01-06T01:01:47.906Z,2.00
2018-01-06T01:04:14.342Z,1.90
2018-01-06T01:06:40.767Z,1.70
2018-01-06T01:09:07.162Z,1.67
2018-01-06T01:11:33.612Z,1.30
2018-01-06T01:14:00.738Z,1.40
2018-01-06T01:16:27.153Z,1.77
2018-01-06T01:18:53.571Z,1.62
2018-01-06T01:21:19.955Z,2.50
2018-01-06T01:23:46.366Z,4.50
2018-01-06T01:26:12.754Z,3.40
2018-01-06T01:28:39.162Z,3.00
2018-01-06T01:31:06.301Z,1.80
2018-01-06T01:33:32.697Z,3.67
2018-01-06T01:35:59.105Z,6.00
2018-01-06T01:38:25.483Z,3.60
2018-01-06T01:40:51.878Z,3.22
2018-01-06T01:43:18.285Z,2.80
2018-01-06T01:45:45.457Z,3.03
2018-01-06T01:48:11.862Z,2.63
2018-01-06T01:50:39.015Z,1.70
2018-01-06T01:53:05.449Z,1.60
2018-01-06T01:55:31.846Z,1.70
2018-01-06T01:57:58.230Z,1.70
2018-01-06T02:00:25.381Z,1.80
2018-01-06T02:02:52.528Z,1.80
2018-01-06T02:05:19.657Z,2.30
2018-01-06T02:07:46.065Z,1.90
2018-01-06T02:10:12.439Z,2.10
2018-01-06T02:12:38.842Z,1.70
2018-01-06T02:15:05.245Z,2.10
2018-01-06T02:17:31.622Z,2.00
2018-01-06T02:19:58.014Z,2.30
2018-01-06T02:22:24.389Z,2.10
2018-01-06T02:24:50.814Z,2.30
2018-01-06T02:27:17.221Z,5.00
2018-01-06T02:29:43.597Z,5.40
2018-01-06T02:32:11.623Z,3.05
2018-01-06T02:34:38.013Z,3.10
2018-01-06T02:37:05.162Z,3.20
2018-01-06T02:39:31.589Z,3.00
2018-01-06T02:41:57.970Z,3.00
2018-01-06T02:44:24.369Z,3.30
2018-01-06T02:46:50.741Z,4.65
2018-01-06T02:49:17.142Z,6.10
2018-01-06T02:51:44.296Z,4.50
2018-01-06T02:54:11.401Z,3.40
2018-01-06T02:56:37.798Z,4.43
2018-01-06T02:59:04.181Z,4.20
2018-01-06T03:01:30.585Z,3.92
2018-01-06T03:03:56.970Z,4.00
2018-01-06T03:06:23.365Z,4.10
2018-01-06T03:08:49.772Z,4.22
2018-01-06T03:11:16.142Z,3.92
2018-01-06T03:13:42.549Z,4.70
2018-01-06T03:16:08.945Z,3.80
2018-01-06T03:18:35.330Z,4.30
2018-01-06T03:21:01.734Z,4.30
2018-01-06T03:23:35.909Z,4.70
2018-01-06T03:26:02.306Z,4.40
2018-01-06T03:28:28.675Z,5.10
2018-01-06T03:30:55.099Z,4.40
2018-01-06T03:33:21.486Z,5.30
2018-01-06T03:35:48.633Z,6.40
2018-01-06T03:38:15.747Z,6.80
2018-01-06T03:40:42.196Z,5.90
2018-01-06T03:43:08.594Z,6.50
2018-01-06T03:45:34.981Z,6.00
2018-01-06T03:48:02.125Z,5.85
2018-01-06T03:50:29.254Z,6.22
2018-01-06T03:52:55.661Z,6.37
2018-01-06T03:55:22.062Z,6.65
2018-01-06T03:57:48.424Z,6.55
2018-01-06T04:00:14.850Z,7.28
2018-01-06T04:02:41.296Z,6.75
2018-01-06T04:05:07.698Z,7.15
2018-01-06T04:07:34.161Z,6.87
2018-01-06T04:10:00.542Z,8.27
2018-01-06T04:12:27.032Z,8.40
2018-01-06T04:14:53.425Z,8.20
2018-01-06T04:17:20.573Z,8.25
2018-01-06T04:19:47.710Z,7.75
2018-01-06T04:22:14.087Z,7.30
2018-01-06T04:24:40.485Z,7.00
2018-01-06T04:27:07.618Z,7.25
2018-01-06T04:29:34.038Z,7.32
2018-01-06T04:32:00.467Z,9.43
2018-01-06T04:34:26.914Z,8.77
2018-01-06T04:36:53.386Z,7.62
2018-01-06T04:39:20.562Z,7.90
2018-01-06T04:41:46.965Z,8.13
2018-01-06T04:44:14.130Z,7.50
2018-01-06T04:46:41.289Z,9.50
2018-01-06T04:49:07.684Z,9.50
2018-01-06T04:51:34.078Z,9.80
2018-01-06T04:54:00.489Z,9.55
2018-01-06T04:56:26.862Z,9.27
2018-01-06T04:58:53.270Z,10.07
2018-01-06T05:01:19.665Z,9.35
2018-01-06T05:03:46.138Z,8.40
2018-01-06T05:06:12.534Z,8.40
2018-01-06T05:08:39.705Z,7.90
2018-01-06T05:11:06.837Z,8.00
2018-01-06T05:13:33.212Z,7.95
2018-01-06T05:15:59.624Z,8.60
2018-01-06T05:18:26.776Z,7.60
2018-01-06T05:20:53.918Z,7.70
2018-01-06T05:23:21.085Z,7.93
2018-01-06T05:25:48.204Z,7.00
2018-01-06T05:28:14.614Z,7.20
2018-01-06T05:30:40.997Z,8.10
2018-01-06T05:33:08.143Z,7.90
2018-01-06T05:35:35.382Z,8.10
2018-01-06T05:38:01.834Z,8.43
2018-01-06T05:40:29.022Z,8.40
2018-01-06T05:42:55.448Z,8.98
2018-01-06T05:45:21.869Z,9.05
2018-01-06T05:47:48.305Z,9.10
2018-01-06T05:50:14.690Z,9.38
2018-01-06T05:52:41.082Z,8.55
2018-01-06T05:55:07.455Z,9.98
2018-01-06T05:57:33.852Z,10.07
2018-01-06T06:00:00.237Z,10.25
2018-01-06T06:02:26.620Z,10.38
2018-01-06T06:04:53.041Z,10.45
2018-01-06T06:07:19.415Z,10.30
2018-01-06T06:09:45.835Z,10.40
2018-01-06T06:12:12.266Z,10.40
2018-01-06T06:14:38.670Z,9.70
2018-01-06T06:17:05.827Z,10.60
2018-01-06T06:19:32.193Z,9.77
2018-01-06T06:21:58.621Z,10.27
2018-01-06T06:24:25.041Z,8.80
2018-01-06T06:26:51.425Z,9.40
2018-01-06T06:29:17.842Z,9.40
2018-01-06T06:31:44.213Z,8.30
2018-01-06T06:34:11.349Z,7.95
2018-01-06T06:36:37.775Z,7.97
2018-01-06T06:39:04.181Z,7.50
2018-01-06T06:41:30.585Z,6.30
2018-01-06T06:43:56.970Z,4.90
2018-01-06T06:46:23.389Z,4.80
2018-01-06T06:48:49.781Z,4.93
2018-01-06T06:51:16.173Z,5.20
2018-01-06T06:53:42.581Z,5.20
2018-01-06T06:56:09.005Z,4.75
2018-01-06T08:28:49.798Z,9.82
2018-01-06T08:31:16.918Z,13.45
2018-01-06T08:33:43.329Z,13.70
2018-01-06T08:36:09.710Z,12.27
2018-01-06T08:38:36.861Z,12.00
2018-01-06T08:41:03.265Z,10.52
2018-01-06T08:43:29.636Z,10.32
2018-01-06T08:45:56.778Z,10.20
2018-01-06T08:48:23.153Z,9.90
2018-01-06T08:50:49.558Z,10.15
2018-01-06T08:53:16.740Z,9.93
2018-01-06T08:55:43.101Z,9.45
2018-01-06T08:58:09.510Z,8.90
2018-01-06T09:00:35.913Z,9.60
2018-01-06T09:03:03.073Z,10.32
2018-01-06T09:05:30.230Z,10.02
2018-01-06T09:07:56.626Z,9.45
2018-01-06T09:10:23.027Z,9.75
2018-01-06T09:12:49.410Z,11.30
2018-01-06T09:15:16.558Z,9.90
2018-01-06T09:17:43.705Z,9.05
2018-01-06T09:20:10.088Z,9.70
2018-01-06T09:22:36.498Z,8.63
2018-01-06T09:25:02.938Z,9.43
2018-01-06T09:27:29.358Z,8.35
2018-01-06T09:29:56.498Z,7.82
2018-01-06T09:32:23.602Z,8.13
2018-01-06T09:34:50.021Z,7.95
2018-01-06T09:37:16.402Z,8.30
2018-01-06T09:39:42.817Z,8.15
2018-01-06T09:42:09.237Z,8.20
2018-01-06T09:44:35.614Z,7.35
2018-01-06T09:47:02.014Z,7.10
2018-01-06T09:49:28.396Z,6.90
2018-01-06T09:51:55.534Z,6.80
2018-01-06T09:54:21.997Z,8.05
2018-01-06T09:56:48.403Z,7.65
2018-01-06T09:59:14.788Z,7.80
2018-01-06T10:01:41.174Z,6.22
2018-01-06T10:04:08.330Z,6.75
2018-01-06T10:06:35.470Z,5.75
2018-01-06T10:09:01.862Z,6.10
2018-01-06T10:11:28.266Z,5.47
2018-01-06T10:13:54.638Z,6.55
2018-01-06T10:16:21.038Z,5.50
2018-01-06T10:18:47.458Z,5.75
2018-01-06T10:21:14.610Z,6.32
2018-01-06T10:23:41.766Z,5.85
2018-01-06T10:26:08.889Z,6.10
2018-01-06T10:28:35.314Z,5.72
2018-01-06T10:31:01.718Z,5.20
2018-01-06T10:33:28.151Z,5.68
2018-01-06T10:35:54.558Z,7.55
2018-01-06T10:38:20.937Z,5.78
2018-01-06T10:40:47.335Z,6.25
2018-01-06T10:43:13.717Z,5.30
2018-01-06T10:45:40.106Z,4.32
2018-01-06T10:48:06.489Z,5.30
2018-01-06T10:50:32.941Z,5.15
2018-01-06T10:53:00.126Z,4.30
2018-01-06T10:55:26.563Z,4.57
2018-01-06T10:57:52.951Z,5.57
2018-01-06T11:00:19.391Z,5.15
2018-01-06T11:02:45.829Z,4.95
2018-01-06T11:05:12.945Z,5.00
2018-01-06T11:07:39.340Z,4.75
2018-01-06T11:10:05.745Z,6.22
2018-01-06T11:12:32.135Z,5.18
2018-01-06T11:14:58.554Z,4.60
2018-01-06T11:17:24.942Z,4.95
2018-01-06T11:19:51.341Z,5.53
2018-01-06T11:22:17.739Z,3.90
2018-01-06T11:24:44.126Z,5.57
2018-01-06T11:27:10.541Z,6.70
2018-01-06T11:29:36.956Z,5.28
2018-01-06T11:32:03.358Z,4.80
2018-01-06T11:34:30.514Z,5.82
2018-01-06T11:36:57.914Z,5.62
2018-01-06T11:39:24.333Z,4.80
2018-01-06T11:41:50.717Z,5.57
2018-01-06T11:44:17.114Z,5.45
2018-01-06T11:46:43.538Z,5.25
2018-01-06T11:49:09.949Z,5.78
2018-01-06T11:51:37.974Z,5.53
2018-01-06T11:54:04.664Z,4.80
2018-01-06T11:56:31.060Z,6.18
2018-01-06T11:58:57.482Z,6.28
2018-01-06T12:01:23.871Z,5.30
2018-01-06T12:03:51.155Z,5.50
2018-01-06T12:06:17.532Z,5.60
2018-01-06T12:08:43.934Z,5.50
2018-01-06T12:11:10.355Z,5.32
2018-01-06T12:13:36.740Z,5.00
2018-01-06T12:16:03.939Z,6.25
2018-01-06T12:18:30.343Z,4.60
2018-01-06T12:20:57.493Z,5.45
2018-01-06T12:23:24.676Z,5.65
2018-01-06T12:25:51.057Z,5.25
2018-01-06T12:28:17.452Z,4.65
2018-01-06T12:30:43.840Z,5.22
2018-01-06T12:33:10.997Z,5.28
2018-01-06T12:35:38.159Z,4.65
2018-01-06T12:38:04.542Z,5.03
2018-01-06T12:40:30.957Z,5.43
2018-01-06T12:42:57.346Z,4.55
2018-01-06T12:45:24.502Z,4.70
2018-01-06T12:47:51.661Z,4.68
2018-01-06T12:50:18.083Z,5.18
2018-01-06T12:52:45.250Z,5.18
2018-01-06T12:55:11.654Z,5.07
2018-01-06T12:57:38.087Z,4.85
2018-01-06T13:00:04.550Z,5.55
2018-01-06T13:02:31.832Z,5.22
2018-01-06T13:04:58.273Z,4.55
2018-01-06T13:07:24.652Z,5.35
2018-01-06T13:09:51.954Z,4.05
2018-01-06T13:12:18.377Z,4.75
2018-01-06T13:14:44.774Z,4.62
2018-01-06T13:17:11.930Z,4.78
2018-01-06T13:19:38.396Z,4.07
2018-01-06T13:22:04.930Z,4.90
2018-01-06T13:24:31.378Z,4.75
2018-01-06T13:26:57.821Z,4.82
2018-01-06T13:29:24.222Z,3.92
2018-01-06T13:31:51.494Z,4.60
2018-01-06T13:34:18.099Z,5.10
2018-01-06T13:36:45.226Z,5.32
2018-01-06T13:41:45.705Z,5.90
2018-01-06T13:44:12.843Z,5.18
2018-01-06T13:46:40.905Z,5.57
2018-01-06T13:49:08.089Z,6.05
2018-01-06T13:51:36.823Z,4.95
2018-01-06T13:54:03.234Z,5.70
2018-01-06T13:56:29.697Z,4.95
2018-01-06T13:58:56.172Z,6.18
2018-01-06T14:01:23.362Z,6.03
2018-01-06T14:03:49.937Z,5.68
2018-01-06T14:06:16.393Z,5.47
2018-01-06T14:08:42.933Z,5.07
2018-01-06T14:11:10.100Z,5.40
2018-01-06T14:13:36.501Z,6.30
2018-01-06T14:16:02.933Z,5.15
2018-01-06T14:18:29.500Z,7.30
2018-01-06T14:20:56.650Z,5.30
2018-01-06T14:23:23.825Z,5.30
2018-01-06T14:25:50.222Z,5.82
2018-01-06T14:28:17.382Z,5.40
2018-01-06T14:30:44.527Z,5.62
2018-01-06T14:33:11.688Z,5.53
2018-01-06T14:35:38.834Z,5.43
2018-01-06T14:38:05.276Z,6.05
2018-01-06T14:40:32.477Z,6.40
2018-01-06T14:43:00.736Z,7.65
2018-01-06T14:45:27.163Z,6.95
2018-01-06T14:47:53.594Z,6.25
2018-01-06T14:50:19.961Z,5.70
2018-01-06T14:52:46.375Z,6.65
2018-01-06T14:55:12.776Z,6.05
2018-01-06T14:57:39.954Z,5.90
2018-01-06T15:00:06.391Z,6.65
2018-01-06T15:02:32.830Z,6.65
2018-01-06T15:04:59.316Z,6.70
2018-01-06T15:07:25.729Z,8.88
2018-01-06T15:09:52.147Z,8.23
2018-01-06T15:12:18.589Z,7.18
2018-01-06T15:14:44.988Z,8.02
2018-01-06T15:17:11.422Z,7.03
2018-01-06T15:19:37.833Z,6.57
2018-01-06T15:22:04.945Z,9.02
2018-01-06T15:24:31.359Z,8.65
2018-01-06T15:26:57.779Z,9.23
2018-01-06T15:31:50.442Z,9.60
2018-01-06T15:34:16.837Z,8.70
2018-01-06T15:36:43.269Z,9.13
2018-01-06T15:39:09.649Z,8.70
2018-01-06T15:41:36.083Z,8.75
2018-01-06T15:44:02.502Z,9.55
2018-01-06T15:46:29.665Z,10.25
2018-01-06T15:48:56.087Z,8.85
2018-01-06T15:51:23.217Z,9.43
2018-01-06T15:53:50.377Z,10.57
2018-01-06T15:56:17.501Z,13.00
2018-01-06T15:58:44.685Z,13.88
2018-01-06T16:01:11.843Z,15.75
2018-01-06T16:03:38.986Z,9.57
2018-01-06T16:06:06.146Z,13.77
2018-01-06T16:08:33.281Z,20.05
2018-01-06T16:10:59.704Z,18.87
2018-01-06T16:13:26.099Z,17.60
2018-01-06T16:15:52.533Z,14.90
2018-01-06T16:18:18.965Z,16.27
2018-01-06T16:20:45.382Z,15.57
2018-01-06T16:23:11.815Z,19.92
2018-01-06T16:25:38.206Z,24.42
2018-01-06T16:28:04.620Z,22.58
2018-01-06T16:30:31.012Z,19.45
2018-01-06T16:32:57.429Z,21.92
2018-01-06T16:35:24.580Z,21.60
2018-01-06T16:37:51.719Z,22.05
2018-01-06T16:40:18.173Z,21.37
2018-01-06T16:42:45.326Z,20.52
2018-01-06T16:45:12.483Z,22.17
2018-01-06T16:47:39.641Z,22.98
2018-01-06T16:50:06.074Z,18.92
2018-01-06T16:52:32.497Z,13.88
2018-01-06T16:54:59.653Z,15.32
2018-01-06T16:57:26.822Z,19.98
2018-01-06T16:59:53.222Z,19.95
2018-01-06T17:02:19.634Z,20.17
2018-01-06T17:04:46.078Z,19.70
2018-01-06T17:07:13.258Z,19.90
2018-01-06T17:09:40.448Z,20.55
2018-01-06T17:14:33.137Z,14.55
2018-01-06T17:16:59.568Z,18.48
2018-01-06T17:19:25.970Z,15.43
2018-01-06T17:21:52.408Z,16.77
2018-01-06T17:24:18.807Z,17.23
2018-01-06T17:26:45.961Z,15.73
2018-01-06T17:29:13.164Z,20.73
2018-01-06T17:31:39.542Z,24.23
2018-01-06T17:34:06.723Z,19.52
2018-01-06T17:38:59.432Z,15.35
2018-01-06T17:41:25.865Z,19.55
2018-01-06T17:43:52.238Z,33.08
2018-01-06T17:46:19.438Z,33.67
2018-01-06T17:48:45.834Z,40.70
2018-01-06T17:51:12.305Z,36.17
2018-01-06T17:53:38.712Z,42.90
2018-01-06T17:56:05.113Z,42.40
2018-01-06T17:58:32.278Z,31.55
2018-01-06T18:10:44.387Z,20.40
2018-01-06T18:13:10.810Z,18.45
2018-01-06T18:15:37.249Z,23.30
2018-01-06T18:18:03.807Z,29.55
